createdAt,value
2018-08-30T00:00:45.289Z,16.16
2018-08-30T00:01:45.553Z,16.19
2018-08-30T00:02:45.232Z,16.13
2018-08-30T00:03:45.578Z,16.15
2018-08-30T00:04:45.273Z,16.14
2018-08-30T00:05:45.364Z,16.13
2018-08-30T00:06:45.340Z,16.13
2018-08-30T00:07:45.347Z,16.1
2018-08-30T00:08:45.319Z,16.11
2018-08-30T00:09:45.647Z,16.17
2018-08-30T00:10:45.261Z,16.12
2018-08-30T00:11:45.347Z,16.14
2018-08-30T00:12:45.412Z,16.13
2018-08-30T00:13:45.345Z,16.17
2018-08-30T00:14:45.565Z,16.13
2018-08-30T00:15:46.137Z,16.14
2018-08-30T00:16:45.470Z,16.12
2018-08-30T00:17:45.961Z,16.12
2018-08-30T00:18:45.457Z,16.08
2018-08-30T00:19:46.194Z,16.07
2018-08-30T00:20:45.324Z,16.03
2018-08-30T00:21:45.366Z,16.04
2018-08-30T00:22:45.399Z,16.01
2018-08-30T00:23:45.403Z,15.99
2018-08-30T00:24:45.344Z,15.99
2018-08-30T00:25:46.759Z,15.97
2018-08-30T00:26:45.327Z,15.97
2018-08-30T00:27:45.269Z,15.98
2018-08-30T00:28:45.425Z,15.99
2018-08-30T00:29:45.740Z,15.98
2018-08-30T00:30:45.308Z,15.98
2018-08-30T00:31:45.314Z,15.96
2018-08-30T00:32:45.851Z,15.97
2018-08-30T00:33:45.468Z,15.99
2018-08-30T00:34:45.394Z,15.97
2018-08-30T00:35:45.339Z,15.99
2018-08-30T00:36:45.609Z,15.96
2018-08-30T00:37:45.363Z,15.99
2018-08-30T00:38:45.307Z,15.98
2018-08-30T00:39:45.411Z,15.98
2018-08-30T00:40:45.358Z,16
2018-08-30T00:41:45.283Z,15.98
2018-08-30T00:42:45.377Z,15.95
2018-08-30T00:43:46.141Z,15.95
2018-08-30T00:44:45.673Z,15.94
2018-08-30T00:45:45.360Z,15.97
2018-08-30T00:46:45.468Z,15.97
2018-08-30T00:47:45.331Z,15.96
2018-08-30T00:48:45.351Z,15.95
2018-08-30T00:49:45.514Z,15.99
2018-08-30T00:50:45.376Z,15.94
2018-08-30T00:51:45.304Z,15.95
2018-08-30T00:52:45.490Z,15.94
2018-08-30T00:53:45.341Z,15.94
2018-08-30T00:54:45.777Z,15.93
2018-08-30T00:55:45.401Z,15.94
2018-08-30T00:56:45.404Z,15.9
2018-08-30T00:57:45.361Z,15.86
2018-08-30T00:58:45.330Z,15.85
2018-08-30T00:59:45.473Z,15.87
2018-08-30T01:00:45.376Z,15.86
2018-08-30T01:01:45.480Z,15.88
2018-08-30T01:02:45.328Z,15.87
2018-08-30T01:03:45.364Z,15.86
2018-08-30T01:04:45.339Z,15.85
2018-08-30T01:05:45.374Z,15.83
2018-08-30T01:06:45.357Z,15.82
2018-08-30T01:07:45.327Z,15.81
2018-08-30T01:08:45.406Z,15.82
2018-08-30T01:09:45.423Z,15.79
2018-08-30T01:10:45.328Z,15.77
2018-08-30T01:11:45.382Z,15.78
2018-08-30T01:12:45.403Z,15.66
2018-08-30T01:13:45.343Z,15.65
2018-08-30T01:14:45.445Z,15.6
2018-08-30T01:15:45.469Z,15.6
2018-08-30T01:16:45.360Z,15.57
2018-08-30T01:17:45.744Z,15.59
2018-08-30T01:18:45.353Z,15.67
2018-08-30T01:19:45.452Z,15.61
2018-08-30T01:20:45.664Z,15.52
2018-08-30T01:21:45.481Z,15.55
2018-08-30T01:22:45.348Z,15.53
2018-08-30T01:23:45.804Z,15.53
2018-08-30T01:24:45.428Z,15.54
2018-08-30T01:25:45.435Z,15.53
2018-08-30T01:26:45.360Z,15.5
2018-08-30T01:27:45.388Z,15.51
2018-08-30T01:28:45.372Z,15.53
2018-08-30T01:29:45.619Z,15.48
2018-08-30T01:30:45.404Z,15.56
2018-08-30T01:31:45.375Z,15.67
2018-08-30T01:32:45.348Z,15.78
2018-08-30T01:33:45.560Z,16.04
2018-08-30T01:34:45.497Z,15.81
2018-08-30T01:35:45.370Z,15.91
2018-08-30T01:36:45.459Z,15.83
2018-08-30T01:37:45.449Z,15.86
2018-08-30T01:38:45.367Z,15.89
2018-08-30T01:39:45.536Z,15.88
2018-08-30T01:40:45.488Z,15.98
2018-08-30T01:41:45.516Z,15.98
2018-08-30T01:42:45.426Z,15.96
2018-08-30T01:43:45.425Z,16.06
2018-08-30T01:44:45.483Z,16.03
2018-08-30T01:45:45.461Z,16.07
2018-08-30T01:46:45.392Z,15.95
2018-08-30T01:47:45.494Z,16.11
2018-08-30T01:48:45.379Z,15.95
2018-08-30T01:49:45.979Z,16.13
2018-08-30T01:50:45.492Z,16.01
2018-08-30T01:51:45.601Z,16.01
2018-08-30T01:52:45.453Z,16
2018-08-30T01:53:45.693Z,16.06
2018-08-30T01:54:45.432Z,16
2018-08-30T01:55:45.900Z,15.87
2018-08-30T01:56:45.415Z,15.95
2018-08-30T01:57:45.681Z,16.01
2018-08-30T01:58:45.760Z,15.87
2018-08-30T01:59:45.407Z,15.89
2018-08-30T02:00:45.450Z,15.88
2018-08-30T02:01:45.544Z,15.88
2018-08-30T02:02:45.435Z,15.89
2018-08-30T02:03:45.796Z,15.75
2018-08-30T02:04:45.571Z,15.81
2018-08-30T02:05:45.611Z,15.75
2018-08-30T02:06:45.548Z,15.73
2018-08-30T02:07:45.697Z,15.74
2018-08-30T02:08:45.452Z,15.61
2018-08-30T02:09:45.640Z,15.52
2018-08-30T02:10:45.914Z,15.52
2018-08-30T02:11:45.522Z,15.52
2018-08-30T02:12:45.525Z,15.58
2018-08-30T02:13:45.396Z,15.52
2018-08-30T02:14:45.510Z,15.47
2018-08-30T02:15:45.434Z,15.49
2018-08-30T02:16:45.580Z,15.43
2018-08-30T02:17:45.504Z,15.32
2018-08-30T02:18:45.424Z,15.32
2018-08-30T02:19:45.716Z,15.3
2018-08-30T02:20:45.590Z,15.25
2018-08-30T02:21:45.430Z,15.28
2018-08-30T02:22:45.454Z,15.27
2018-08-30T02:23:45.530Z,15.3
2018-08-30T02:24:45.443Z,15.27
2018-08-30T02:25:45.461Z,15.28
2018-08-30T02:26:45.466Z,15.3
2018-08-30T02:27:45.671Z,15.27
2018-08-30T02:28:45.421Z,15.37
2018-08-30T02:29:45.460Z,15.36
2018-08-30T02:30:45.654Z,15.36
2018-08-30T02:31:45.501Z,15.32
2018-08-30T02:32:45.532Z,15.32
2018-08-30T02:33:45.430Z,15.35
2018-08-30T02:34:45.472Z,15.32
2018-08-30T02:35:45.698Z,15.28
2018-08-30T02:36:45.552Z,15.25
2018-08-30T02:37:45.944Z,15.31
2018-08-30T02:38:45.435Z,15.29
2018-08-30T02:39:45.472Z,15.33
2018-08-30T02:40:45.500Z,15.43
2018-08-30T02:41:45.446Z,15.39
2018-08-30T02:42:45.706Z,15.44
2018-08-30T02:43:45.523Z,15.42
2018-08-30T02:44:45.569Z,15.4
2018-08-30T02:45:45.653Z,15.39
2018-08-30T02:46:45.431Z,15.42
2018-08-30T02:47:45.627Z,15.4
2018-08-30T02:48:45.475Z,15.4
2018-08-30T02:49:45.559Z,15.4
2018-08-30T02:50:45.462Z,15.37
2018-08-30T02:51:45.734Z,15.35
2018-08-30T02:52:45.508Z,15.37
2018-08-30T02:53:46.014Z,15.36
2018-08-30T02:54:45.481Z,15.39
2018-08-30T02:55:45.506Z,15.32
2018-08-30T02:56:45.747Z,15.44
2018-08-30T02:57:45.574Z,15.41
2018-08-30T02:58:45.597Z,15.43
2018-08-30T02:59:45.486Z,15.35
2018-08-30T03:00:45.497Z,15.4
2018-08-30T03:01:45.479Z,15.36
2018-08-30T03:02:45.541Z,15.39
2018-08-30T03:03:45.533Z,15.38
2018-08-30T03:04:45.528Z,15.41
2018-08-30T03:05:45.534Z,15.38
2018-08-30T03:06:45.638Z,15.38
2018-08-30T03:07:45.468Z,15.4
2018-08-30T03:08:45.709Z,15.37
2018-08-30T03:09:45.822Z,15.32
2018-08-30T03:10:45.826Z,15.39
2018-08-30T03:11:45.470Z,15.37
2018-08-30T03:12:45.772Z,15.33
2018-08-30T03:13:45.675Z,15.33
2018-08-30T03:14:46.034Z,15.29
2018-08-30T03:15:45.749Z,15.3
2018-08-30T03:16:45.761Z,15.33
2018-08-30T03:17:45.485Z,15.3
2018-08-30T03:18:45.493Z,15.31
2018-08-30T03:19:45.815Z,15.34
2018-08-30T03:20:45.556Z,15.32
2018-08-30T03:21:45.505Z,15.31
2018-08-30T03:22:45.697Z,15.34
2018-08-30T03:23:45.651Z,15.35
2018-08-30T03:24:45.573Z,15.35
2018-08-30T03:25:45.529Z,15.31
2018-08-30T03:26:45.514Z,15.32
2018-08-30T03:27:45.520Z,15.3
2018-08-30T03:28:45.499Z,15.36
2018-08-30T03:29:45.505Z,15.39
2018-08-30T03:30:46.367Z,15.37
2018-08-30T03:31:45.597Z,15.38
2018-08-30T03:32:45.590Z,15.41
2018-08-30T03:33:45.571Z,15.37
2018-08-30T03:34:45.531Z,15.36
2018-08-30T03:35:45.512Z,15.36
2018-08-30T03:36:45.549Z,15.3
2018-08-30T03:37:45.668Z,15.3
2018-08-30T03:38:45.535Z,15.31
2018-08-30T03:39:45.517Z,15.32
2018-08-30T03:40:45.537Z,15.27
2018-08-30T03:41:46.465Z,15.32
2018-08-30T03:42:45.539Z,15.34
2018-08-30T03:43:45.571Z,15.4
2018-08-30T03:44:45.550Z,15.46
2018-08-30T03:45:45.517Z,15.5
2018-08-30T03:46:45.758Z,15.47
2018-08-30T03:47:45.522Z,15.52
2018-08-30T03:48:45.551Z,15.6
2018-08-30T03:49:45.535Z,15.64
2018-08-30T03:50:45.532Z,15.71
2018-08-30T03:51:45.547Z,15.66
2018-08-30T03:52:45.579Z,15.54
2018-08-30T03:53:45.537Z,15.53
2018-08-30T03:54:45.555Z,15.61
2018-08-30T03:55:45.591Z,15.67
2018-08-30T03:56:45.540Z,15.68
2018-08-30T03:57:45.568Z,15.7
2018-08-30T03:58:45.721Z,15.7
2018-08-30T03:59:45.554Z,15.75
2018-08-30T04:00:45.537Z,15.65
2018-08-30T04:01:45.558Z,15.61
2018-08-30T04:02:45.604Z,15.58
2018-08-30T04:03:45.624Z,15.52
2018-08-30T04:04:45.722Z,15.57
2018-08-30T04:05:45.721Z,15.62
2018-08-30T04:06:45.607Z,15.55
2018-08-30T04:07:45.751Z,15.55
2018-08-30T04:08:45.578Z,15.54
2018-08-30T04:09:45.848Z,15.54
2018-08-30T04:10:45.769Z,15.52
2018-08-30T04:11:45.561Z,15.49
2018-08-30T04:12:45.602Z,15.49
2018-08-30T04:13:45.593Z,15.52
2018-08-30T04:14:45.620Z,15.48
2018-08-30T04:15:45.722Z,15.45
2018-08-30T04:16:45.643Z,15.39
2018-08-30T04:17:45.602Z,15.44
2018-08-30T04:18:45.687Z,15.37
2018-08-30T04:19:45.800Z,15.4
2018-08-30T04:20:45.596Z,15.33
2018-08-30T04:21:45.910Z,15.49
2018-08-30T04:22:45.715Z,15.41
2018-08-30T04:23:45.616Z,15.4
2018-08-30T04:24:45.610Z,15.42
2018-08-30T04:25:45.591Z,15.43
2018-08-30T04:26:45.655Z,15.41
2018-08-30T04:27:45.634Z,15.48
2018-08-30T04:28:45.580Z,15.48
2018-08-30T04:29:45.617Z,15.46
2018-08-30T04:30:45.738Z,15.46
2018-08-30T04:31:45.723Z,15.49
2018-08-30T04:32:45.595Z,15.5
2018-08-30T04:33:45.783Z,15.48
2018-08-30T04:34:45.582Z,15.42
2018-08-30T04:35:45.914Z,15.48
2018-08-30T04:36:45.612Z,15.44
2018-08-30T04:37:45.608Z,15.46
2018-08-30T04:38:45.723Z,15.39
2018-08-30T04:39:45.577Z,15.43
2018-08-30T04:40:45.750Z,15.37
2018-08-30T04:41:45.614Z,15.33
2018-08-30T04:42:46.108Z,15.36
2018-08-30T04:43:46.276Z,15.43
2018-08-30T04:44:45.625Z,15.39
2018-08-30T04:45:45.744Z,15.36
2018-08-30T04:46:45.696Z,15.39
2018-08-30T04:47:45.596Z,15.34
2018-08-30T04:48:45.680Z,15.32
2018-08-30T04:49:45.914Z,15.29
2018-08-30T04:50:45.693Z,15.27
2018-08-30T04:51:45.808Z,15.27
2018-08-30T04:52:45.768Z,15.27
2018-08-30T04:53:45.779Z,15.23
2018-08-30T04:54:46.056Z,15.2
2018-08-30T04:55:45.702Z,15.2
2018-08-30T04:56:46.621Z,15.23
2018-08-30T04:57:45.858Z,15.18
2018-08-30T04:58:45.765Z,15.18
2018-08-30T04:59:45.946Z,15.19
2018-08-30T05:00:45.627Z,15.16
2018-08-30T05:01:46.428Z,15.19
2018-08-30T05:02:45.635Z,15.24
2018-08-30T05:03:45.634Z,15.21
2018-08-30T05:04:45.650Z,15.3
2018-08-30T05:05:45.618Z,15.29
2018-08-30T05:06:45.687Z,15.24
2018-08-30T05:07:45.624Z,15.25
2018-08-30T05:08:45.669Z,15.25
2018-08-30T05:09:45.610Z,15.14
2018-08-30T05:10:45.601Z,15.15
2018-08-30T05:11:45.723Z,15.14
2018-08-30T05:12:45.652Z,15.14
2018-08-30T05:13:45.620Z,15.15
2018-08-30T05:14:45.649Z,15.13
2018-08-30T05:15:45.684Z,15.14
2018-08-30T05:16:45.655Z,15.17
2018-08-30T05:17:45.679Z,15.16
2018-08-30T05:18:45.607Z,15.15
2018-08-30T05:19:45.684Z,15.17
2018-08-30T05:20:45.636Z,15.12
2018-08-30T05:21:45.640Z,15.11
2018-08-30T05:22:45.803Z,15.11
2018-08-30T05:23:45.725Z,15.12
2018-08-30T05:24:45.640Z,15.09
2018-08-30T05:25:45.755Z,15.11
2018-08-30T05:26:45.956Z,15.11
2018-08-30T05:27:45.658Z,15.14
2018-08-30T05:28:45.663Z,15.16
2018-08-30T05:29:46.119Z,15.15
2018-08-30T05:30:46.086Z,15.16
2018-08-30T05:31:45.718Z,15.15
2018-08-30T05:32:45.671Z,15.15
2018-08-30T05:33:46.319Z,15.12
2018-08-30T05:34:45.834Z,15.18
2018-08-30T05:35:46.394Z,15.18
2018-08-30T05:36:45.684Z,15.22
2018-08-30T05:37:46.203Z,15.21
2018-08-30T05:38:45.844Z,15.18
2018-08-30T05:39:46.158Z,15.22
2018-08-30T05:40:45.748Z,15.25
2018-08-30T05:41:45.648Z,15.27
2018-08-30T05:42:45.663Z,15.29
2018-08-30T05:43:45.671Z,15.25
2018-08-30T05:44:46.490Z,15.19
2018-08-30T05:45:46.130Z,15.25
2018-08-30T05:46:45.736Z,15.26
2018-08-30T05:47:45.832Z,15.16
2018-08-30T05:48:45.711Z,15.14
2018-08-30T05:49:45.761Z,15.14
2018-08-30T05:50:46.168Z,15.13
2018-08-30T05:51:45.922Z,15.12
2018-08-30T05:52:45.724Z,15.15
2018-08-30T05:53:45.874Z,15.1
2018-08-30T05:54:45.674Z,15.06
2018-08-30T05:55:45.963Z,15.06
2018-08-30T05:56:46.384Z,15.03
2018-08-30T05:57:45.800Z,14.95
2018-08-30T05:58:45.931Z,14.85
2018-08-30T05:59:45.782Z,14.84
2018-08-30T06:00:45.681Z,14.87
2018-08-30T06:01:45.801Z,14.87
2018-08-30T06:02:45.699Z,14.8
2018-08-30T06:03:45.769Z,14.79
2018-08-30T06:04:46.122Z,14.77
2018-08-30T06:05:45.838Z,14.65
2018-08-30T06:06:45.699Z,14.62
2018-08-30T06:07:45.767Z,14.64
2018-08-30T06:08:46.058Z,14.5
2018-08-30T06:09:45.745Z,14.19
2018-08-30T06:10:46.032Z,14.17
2018-08-30T06:11:45.706Z,14.17
2018-08-30T06:12:46.046Z,14.18
2018-08-30T06:13:45.857Z,14.21
2018-08-30T06:14:46.199Z,14.19
2018-08-30T06:15:45.764Z,14.16
2018-08-30T06:16:45.697Z,14.07
2018-08-30T06:17:45.706Z,13.94
2018-08-30T06:18:45.774Z,13.89
2018-08-30T06:19:45.794Z,13.91
2018-08-30T06:20:45.795Z,13.81
2018-08-30T06:21:46.021Z,13.82
2018-08-30T06:22:45.738Z,13.69
2018-08-30T06:23:45.883Z,13.72
2018-08-30T06:24:45.744Z,13.74
2018-08-30T06:25:45.736Z,13.62
2018-08-30T06:26:46.124Z,13.55
2018-08-30T06:27:45.728Z,13.59
2018-08-30T06:28:45.763Z,13.65
2018-08-30T06:29:45.743Z,13.57
2018-08-30T06:30:45.766Z,13.61
2018-08-30T06:31:45.757Z,13.57
2018-08-30T06:32:46.068Z,13.54
2018-08-30T06:33:45.769Z,13.56
2018-08-30T06:34:46.693Z,13.62
2018-08-30T06:35:45.793Z,13.59
2018-08-30T06:36:45.755Z,13.47
2018-08-30T06:37:45.750Z,13.4
2018-08-30T06:38:46.678Z,13.42
2018-08-30T06:39:45.756Z,13.44
2018-08-30T06:40:45.756Z,13.32
2018-08-30T06:41:45.730Z,13.36
2018-08-30T06:42:45.790Z,13.31
2018-08-30T06:43:45.757Z,13.38
2018-08-30T06:44:45.771Z,13.31
2018-08-30T06:45:46.822Z,13.37
2018-08-30T06:46:45.768Z,13.41
2018-08-30T06:47:45.836Z,13.33
2018-08-30T06:48:45.846Z,13.33
2018-08-30T06:49:45.751Z,13.32
2018-08-30T06:50:46.009Z,13.35
2018-08-30T06:51:45.844Z,13.27
2018-08-30T06:52:45.862Z,13.35
2018-08-30T06:53:46.068Z,13.33
2018-08-30T06:54:45.815Z,13.27
2018-08-30T06:55:46.078Z,13.19
2018-08-30T06:56:45.770Z,13.2
2018-08-30T06:57:46.311Z,13.29
2018-08-30T06:58:45.768Z,13.27
2018-08-30T06:59:45.760Z,13.25
2018-08-30T07:00:45.802Z,13.26
2018-08-30T07:01:45.841Z,13.28
2018-08-30T07:02:46.049Z,13.26
2018-08-30T07:03:45.826Z,13.23
2018-08-30T07:04:46.622Z,13.3
2018-08-30T07:05:45.787Z,13.26
2018-08-30T07:06:46.050Z,13.27
2018-08-30T07:07:45.874Z,13.34
2018-08-30T07:08:45.798Z,13.35
2018-08-30T07:09:45.891Z,13.34
2018-08-30T07:10:45.907Z,13.2
2018-08-30T07:11:45.818Z,13.1
2018-08-30T07:12:45.796Z,13.07
2018-08-30T07:13:45.814Z,13.13
2018-08-30T07:14:47.047Z,13.12
2018-08-30T07:15:46.161Z,13.07
2018-08-30T07:16:45.800Z,13
2018-08-30T07:17:45.806Z,13.06
2018-08-30T07:18:46.142Z,12.95
2018-08-30T07:19:46.137Z,13.06
2018-08-30T07:20:45.850Z,13.19
2018-08-30T07:21:45.860Z,13.14
2018-08-30T07:22:46.051Z,13.12
2018-08-30T07:23:45.865Z,13.21
2018-08-30T07:24:45.814Z,13.24
2018-08-30T07:25:46.036Z,13.11
2018-08-30T07:26:45.828Z,13
2018-08-30T07:27:46.392Z,13.15
2018-08-30T07:28:45.924Z,13.24
2018-08-30T07:29:46.099Z,13.28
2018-08-30T07:30:46.023Z,13.35
2018-08-30T07:31:45.849Z,13.07
2018-08-30T07:32:46.015Z,12.98
2018-08-30T07:33:45.868Z,13.03
2018-08-30T07:34:47.091Z,13.18
2018-08-30T07:35:45.844Z,13.17
2018-08-30T07:36:45.937Z,13.16
2018-08-30T07:37:46.170Z,13.07
2018-08-30T07:38:45.808Z,13.07
2018-08-30T07:39:45.841Z,12.82
2018-08-30T07:40:45.859Z,13.01
2018-08-30T07:41:45.829Z,12.92
2018-08-30T07:42:45.835Z,13.02
2018-08-30T07:43:45.925Z,12.98
2018-08-30T07:44:45.823Z,12.89
2018-08-30T07:45:45.855Z,12.93
2018-08-30T07:46:45.877Z,12.95
2018-08-30T07:47:45.844Z,12.9
2018-08-30T07:48:45.858Z,12.89
2018-08-30T07:49:45.823Z,12.98
2018-08-30T07:50:46.149Z,12.91
2018-08-30T07:51:45.896Z,12.84
2018-08-30T07:52:46.031Z,12.75
2018-08-30T07:53:45.873Z,12.66
2018-08-30T07:54:45.975Z,12.74
2018-08-30T07:55:45.944Z,12.76
2018-08-30T07:56:45.812Z,12.81
2018-08-30T07:57:45.882Z,12.79
2018-08-30T07:58:45.841Z,12.89
2018-08-30T07:59:45.840Z,12.88
2018-08-30T08:00:45.819Z,12.74
2018-08-30T08:01:46.005Z,12.75
2018-08-30T08:02:46.224Z,12.84
2018-08-30T08:03:45.890Z,12.86
2018-08-30T08:04:45.825Z,12.9
2018-08-30T08:05:45.965Z,12.75
2018-08-30T08:06:46.208Z,12.75
2018-08-30T08:07:45.887Z,12.77
2018-08-30T08:08:45.852Z,12.59
2018-08-30T08:09:45.855Z,12.67
2018-08-30T08:10:45.858Z,12.64
2018-08-30T08:11:46.244Z,12.62
2018-08-30T08:12:46.536Z,12.61
2018-08-30T08:13:46.427Z,12.7
2018-08-30T08:14:46.128Z,12.73
2018-08-30T08:15:45.875Z,12.8
2018-08-30T08:16:45.866Z,12.73
2018-08-30T08:17:46.455Z,12.72
2018-08-30T08:18:45.879Z,12.74
2018-08-30T08:19:45.971Z,12.71
2018-08-30T08:20:45.972Z,12.67
2018-08-30T08:21:46.021Z,12.67
2018-08-30T08:22:45.870Z,12.6
2018-08-30T08:23:45.906Z,12.51
2018-08-30T08:24:46.194Z,12.58
2018-08-30T08:25:46.027Z,12.69
2018-08-30T08:26:45.883Z,12.74
2018-08-30T08:27:45.965Z,12.7
2018-08-30T08:28:46.507Z,12.7
2018-08-30T08:29:45.873Z,12.77
2018-08-30T08:30:46.052Z,12.86
2018-08-30T08:31:45.985Z,12.81
2018-08-30T08:32:46.066Z,12.84
2018-08-30T08:33:46.125Z,12.79
2018-08-30T08:34:46.006Z,12.81
2018-08-30T08:35:46.061Z,12.73
2018-08-30T08:36:46.081Z,12.77
2018-08-30T08:37:46.077Z,12.75
2018-08-30T08:38:46.267Z,12.7
2018-08-30T08:39:45.955Z,12.77
2018-08-30T08:40:46.033Z,12.8
2018-08-30T08:41:45.942Z,12.73
2018-08-30T08:42:46.219Z,12.61
2018-08-30T08:43:45.929Z,12.74
2018-08-30T08:44:46.086Z,12.72
2018-08-30T08:45:46.141Z,12.63
2018-08-30T08:46:46.043Z,12.47
2018-08-30T08:47:46.498Z,12.46
2018-08-30T08:48:45.950Z,12.37
2018-08-30T08:49:46.046Z,12.48
2018-08-30T08:50:45.935Z,12.33
2018-08-30T08:51:46.027Z,12.46
2018-08-30T08:52:46.080Z,12.66
2018-08-30T08:53:47.308Z,12.58
2018-08-30T08:54:46.091Z,12.67
2018-08-30T08:55:46.049Z,12.64
2018-08-30T08:56:45.897Z,12.55
2018-08-30T08:57:46.222Z,12.2
2018-08-30T08:58:46.500Z,12.26
2018-08-30T08:59:45.912Z,12.33
2018-08-30T09:00:46.051Z,12.3
2018-08-30T09:01:46.054Z,12.36
2018-08-30T09:02:46.376Z,12.37
2018-08-30T09:03:46.334Z,12.3
2018-08-30T09:04:45.958Z,12.47
2018-08-30T09:05:46.012Z,12.23
2018-08-30T09:06:45.919Z,12.17
2018-08-30T09:07:46.919Z,12.2
2018-08-30T09:08:46.007Z,12.09
2018-08-30T09:09:46.007Z,12.28
2018-08-30T09:10:45.921Z,12.18
2018-08-30T09:11:45.989Z,12.32
2018-08-30T09:12:46.007Z,12.37
2018-08-30T09:13:46.034Z,12.37
2018-08-30T09:14:45.970Z,12.33
2018-08-30T09:15:45.951Z,12.15
2018-08-30T09:16:45.989Z,12.4
2018-08-30T09:17:45.965Z,11.95
2018-08-30T09:18:46.032Z,11.92
2018-08-30T09:19:45.984Z,11.88
2018-08-30T09:20:46.015Z,12.1
2018-08-30T09:21:46.041Z,12.17
2018-08-30T09:22:46.000Z,12.11
2018-08-30T09:23:45.993Z,11.97
2018-08-30T09:24:46.185Z,11.82
2018-08-30T09:25:45.986Z,11.76
2018-08-30T09:26:46.865Z,11.73
2018-08-30T09:27:46.210Z,11.78
2018-08-30T09:28:45.932Z,11.75
2018-08-30T09:29:45.971Z,11.69
2018-08-30T09:30:46.034Z,11.79
2018-08-30T09:31:46.035Z,11.8
2018-08-30T09:32:46.170Z,11.57
2018-08-30T09:33:46.540Z,11.62
2018-08-30T09:34:46.080Z,11.71
2018-08-30T09:35:46.078Z,11.7
2018-08-30T09:36:45.941Z,11.73
2018-08-30T09:37:46.120Z,11.68
2018-08-30T09:38:46.096Z,11.63
2018-08-30T09:39:46.373Z,11.66
2018-08-30T09:40:46.284Z,11.61
2018-08-30T09:41:46.022Z,11.63
2018-08-30T09:42:46.087Z,11.82
2018-08-30T09:43:46.288Z,11.81
2018-08-30T09:44:46.236Z,11.75
2018-08-30T09:45:46.219Z,11.8
2018-08-30T09:46:46.091Z,11.84
2018-08-30T09:47:46.236Z,11.83
2018-08-30T09:48:46.239Z,11.8
2018-08-30T09:49:47.180Z,11.9
2018-08-30T09:50:45.963Z,11.96
2018-08-30T09:51:46.184Z,11.97
2018-08-30T09:52:46.135Z,11.75
2018-08-30T09:53:46.013Z,11.83
2018-08-30T09:54:46.107Z,11.88
2018-08-30T09:55:46.684Z,11.95
2018-08-30T09:56:46.725Z,11.94
2018-08-30T09:57:46.685Z,11.97
2018-08-30T09:58:46.109Z,11.95
2018-08-30T09:59:47.927Z,12
2018-08-30T10:00:46.367Z,11.91
2018-08-30T10:01:46.096Z,12.08
2018-08-30T10:02:46.114Z,12.05
2018-08-30T10:03:46.331Z,12.07
2018-08-30T10:04:46.782Z,12.03
2018-08-30T10:05:46.375Z,12.15
2018-08-30T10:06:46.744Z,12.17
2018-08-30T10:07:48.712Z,12.12
2018-08-30T10:08:45.988Z,12.01
2018-08-30T10:09:46.129Z,12.06
2018-08-30T10:10:46.411Z,12.03
2018-08-30T10:11:46.295Z,11.98
2018-08-30T10:12:46.143Z,12.01
2018-08-30T10:13:46.041Z,12.22
2018-08-30T10:14:46.048Z,12.12
2018-08-30T10:15:46.435Z,12.26
2018-08-30T10:16:45.974Z,12.22
2018-08-30T10:17:45.989Z,12.11
2018-08-30T10:18:46.027Z,11.99
2018-08-30T10:19:46.013Z,11.98
2018-08-30T10:20:46.333Z,12.01
2018-08-30T10:21:46.296Z,12.02
2018-08-30T10:22:46.185Z,12.04
2018-08-30T10:23:46.007Z,11.97
2018-08-30T10:24:46.092Z,11.95
2018-08-30T10:25:46.275Z,12.08
2018-08-30T10:26:46.115Z,12.17
2018-08-30T10:27:45.998Z,11.98
2018-08-30T10:28:46.035Z,12
2018-08-30T10:29:46.033Z,11.99
2018-08-30T10:30:46.016Z,11.91
2018-08-30T10:31:46.027Z,12.06
2018-08-30T10:32:46.051Z,12.09
2018-08-30T10:33:46.021Z,12.15
2018-08-30T10:34:46.024Z,12.03
2018-08-30T10:35:46.021Z,12.17
2018-08-30T10:36:46.054Z,12.09
2018-08-30T10:37:46.092Z,12.08
2018-08-30T10:38:46.040Z,12.04
2018-08-30T10:39:46.056Z,12.12
2018-08-30T10:40:46.032Z,12.19
2018-08-30T10:41:46.137Z,12.05
2018-08-30T10:42:46.235Z,12.13
2018-08-30T10:43:46.111Z,11.98
2018-08-30T10:44:46.125Z,11.95
2018-08-30T10:45:47.317Z,12
2018-08-30T10:46:46.366Z,11.88
2018-08-30T10:47:46.420Z,11.91
2018-08-30T10:48:46.261Z,11.86
2018-08-30T10:49:46.559Z,11.97
2018-08-30T10:50:46.317Z,11.97
2018-08-30T10:51:46.466Z,12.09
2018-08-30T10:52:46.298Z,11.88
2018-08-30T10:53:46.240Z,11.97
2018-08-30T10:54:46.139Z,11.94
2018-08-30T10:55:46.462Z,11.96
2018-08-30T10:56:46.106Z,11.95
2018-08-30T10:57:46.234Z,12.03
2018-08-30T10:58:46.374Z,12.03
2018-08-30T10:59:46.267Z,12.14
2018-08-30T11:00:46.104Z,12.08
2018-08-30T11:01:46.533Z,12.07
2018-08-30T11:02:46.187Z,12.05
2018-08-30T11:03:46.915Z,12.06
2018-08-30T11:04:46.092Z,12.08
2018-08-30T11:05:46.121Z,12.15
2018-08-30T11:06:46.077Z,12.08
2018-08-30T11:07:46.298Z,12.12
2018-08-30T11:08:46.247Z,12.08
2018-08-30T11:09:46.181Z,12
2018-08-30T11:10:46.224Z,12
2018-08-30T11:11:46.168Z,12.16
2018-08-30T11:12:46.523Z,12.13
2018-08-30T11:13:46.424Z,11.93
2018-08-30T11:14:46.052Z,11.84
2018-08-30T11:15:46.186Z,11.89
2018-08-30T11:16:46.147Z,12.02
2018-08-30T11:17:46.310Z,11.93
2018-08-30T11:18:46.557Z,11.76
2018-08-30T11:19:46.181Z,12
2018-08-30T11:20:46.098Z,11.93
2018-08-30T11:21:46.079Z,11.77
2018-08-30T11:22:46.242Z,11.84
2018-08-30T11:23:46.242Z,11.89
2018-08-30T11:24:46.128Z,12
2018-08-30T11:25:46.685Z,12.05
2018-08-30T11:26:46.396Z,12.09
2018-08-30T11:27:46.205Z,12.18
2018-08-30T11:28:46.321Z,12.02
2018-08-30T11:29:46.357Z,11.73
2018-08-30T11:30:46.893Z,11.82
2018-08-30T11:31:46.228Z,12.1
2018-08-30T11:32:46.137Z,12.19
2018-08-30T11:33:46.753Z,11.92
2018-08-30T11:34:46.772Z,11.88
2018-08-30T11:35:46.098Z,11.98
2018-08-30T11:36:46.213Z,11.96
2018-08-30T11:37:46.870Z,11.93
2018-08-30T11:38:46.256Z,12.04
2018-08-30T11:39:46.499Z,12.01
2018-08-30T11:40:46.346Z,11.75
2018-08-30T11:41:48.508Z,11.89
2018-08-30T11:42:46.081Z,11.97
2018-08-30T11:43:46.324Z,11.88
2018-08-30T11:44:46.136Z,11.96
2018-08-30T11:45:46.131Z,11.96
2018-08-30T11:46:46.178Z,12.07
2018-08-30T11:47:46.218Z,12.11
2018-08-30T11:48:46.283Z,12
2018-08-30T11:49:46.174Z,11.95
2018-08-30T11:50:46.267Z,11.94
2018-08-30T11:51:46.245Z,12.02
2018-08-30T11:52:47.012Z,12.08
2018-08-30T11:53:46.217Z,12
2018-08-30T11:54:46.335Z,12.19
2018-08-30T11:56:46.181Z,12.12
2018-08-30T11:57:46.283Z,12.05
2018-08-30T11:58:46.101Z,12.07
2018-08-30T11:59:46.156Z,12.12
2018-08-30T12:00:46.466Z,11.95
2018-08-30T12:01:46.200Z,11.94
2018-08-30T12:02:46.236Z,11.96
2018-08-30T12:03:46.274Z,11.8
2018-08-30T12:04:46.348Z,11.89
2018-08-30T12:05:46.167Z,11.74
2018-08-30T12:06:46.658Z,11.86
2018-08-30T12:07:46.339Z,11.96
2018-08-30T12:08:46.332Z,11.91
2018-08-30T12:09:46.182Z,11.95
2018-08-30T12:10:47.398Z,12.01
2018-08-30T12:11:47.437Z,12.1
2018-08-30T12:12:46.356Z,12.19
2018-08-30T12:13:46.199Z,11.99
2018-08-30T12:14:46.171Z,11.83
2018-08-30T12:15:46.201Z,11.91
2018-08-30T12:16:46.192Z,11.9
2018-08-30T12:17:46.193Z,11.84
2018-08-30T12:18:46.829Z,11.77
2018-08-30T12:19:46.327Z,11.46
2018-08-30T12:20:47.518Z,11.52
2018-08-30T12:21:46.206Z,11.62
2018-08-30T12:22:46.763Z,11.78
2018-08-30T12:23:46.303Z,11.78
2018-08-30T12:24:46.236Z,11.77
2018-08-30T12:25:46.316Z,11.92
2018-08-30T12:26:46.266Z,11.34
2018-08-30T12:27:46.312Z,11.33
2018-08-30T12:28:47.726Z,11.33
2018-08-30T12:29:46.343Z,11.45
2018-08-30T12:30:46.442Z,11.46
2018-08-30T12:31:46.892Z,11.45
2018-08-30T12:32:46.653Z,11.46
2018-08-30T12:33:46.795Z,11.47
2018-08-30T12:34:46.895Z,11.47
2018-08-30T12:35:47.933Z,11.46
2018-08-30T12:36:46.802Z,11.5
2018-08-30T12:37:46.356Z,11.57
2018-08-30T12:38:46.529Z,11.46
2018-08-30T12:39:47.384Z,11.39
2018-08-30T12:40:46.783Z,11.43
2018-08-30T12:41:46.416Z,11.48
2018-08-30T12:42:46.863Z,11.33
2018-08-30T12:43:46.811Z,11.41
2018-08-30T12:44:46.686Z,11.33
2018-08-30T12:45:47.178Z,11.48
2018-08-30T12:46:46.429Z,11.44
2018-08-30T12:47:46.650Z,11.36
2018-08-30T12:48:46.729Z,11.43
2018-08-30T12:49:46.658Z,11.39
2018-08-30T12:50:47.934Z,11.43
2018-08-30T12:51:47.735Z,11.34
2018-08-30T12:52:47.719Z,11.5
2018-08-30T12:53:47.746Z,11.5
2018-08-30T12:54:47.008Z,11.57
2018-08-30T12:55:47.662Z,11.58
2018-08-30T12:56:47.516Z,11.61
2018-08-30T12:57:47.666Z,11.6